sensor_id;sensor_type;location;lat;lon;timestamp;P1;durP1;ratioP1;P2;durP2;ratioP2
20653;SDS011;21083;50.898;4.902;2023-03-07T00:00:47;13.20;;;5.28;;
20653;SDS011;21083;50.898;4.902;2023-03-07T00:03:14;13.20;;;5.63;;
20653;SDS011;21083;50.898;4.902;2023-03-07T00:05:44;14.88;;;5.70;;
20653;SDS011;21083;50.898;4.902;2023-03-07T00:08:11;14.98;;;5.75;;
20653;SDS011;21083;50.898;4.902;2023-03-07T00:10:38;13.32;;;5.53;;
20653;SDS011;21083;50.898;4.902;2023-03-07T00:13:05;11.73;;;5.03;;
20653;SDS011;21083;50.898;4.902;2023-03-07T00:15:37;15.55;;;5.20;;
20653;SDS011;21083;50.898;4.902;2023-03-07T00:18:05;12.57;;;5.60;;
20653;SDS011;21083;50.898;4.902;2023-03-07T00:20:32;12.05;;;4.88;;
20653;SDS011;21083;50.898;4.902;2023-03-07T00:22:59;11.18;;;4.93;;
20653;SDS011;21083;50.898;4.902;2023-03-07T00:25:26;10.95;;;4.70;;
20653;SDS011;21083;50.898;4.902;2023-03-07T00:27:53;9.13;;;4.30;;
20653;SDS011;21083;50.898;4.902;2023-03-07T00:30:20;8.25;;;3.67;;
20653;SDS011;21083;50.898;4.902;2023-03-07T00:32:48;11.93;;;3.88;;
20653;SDS011;21083;50.898;4.902;2023-03-07T00:35:15;9.27;;;4.13;;
20653;SDS011;21083;50.898;4.902;2023-03-07T00:37:42;11.63;;;4.40;;
20653;SDS011;21083;50.898;4.902;2023-03-07T00:40:09;10.98;;;4.20;;
20653;SDS011;21083;50.898;4.902;2023-03-07T00:42:37;12.52;;;5.32;;
20653;SDS011;21083;50.898;4.902;2023-03-07T00:45:04;14.32;;;5.68;;
20653;SDS011;21083;50.898;4.902;2023-03-07T00:47:32;18.75;;;7.45;;
20653;SDS011;21083;50.898;4.902;2023-03-07T00:50:00;13.10;;;5.93;;
20653;SDS011;21083;50.898;4.902;2023-03-07T00:52:28;14.10;;;6.20;;
20653;SDS011;21083;50.898;4.902;2023-03-07T00:54:55;13.18;;;6.18;;
20653;SDS011;21083;50.898;4.902;2023-03-07T00:57:22;15.35;;;6.40;;
20653;SDS011;21083;50.898;4.902;2023-03-07T00:59:49;14.73;;;6.95;;
20653;SDS011;21083;50.898;4.902;2023-03-07T01:02:16;13.73;;;6.63;;
20653;SDS011;21083;50.898;4.902;2023-03-07T01:04:43;14.57;;;6.82;;
20653;SDS011;21083;50.898;4.902;2023-03-07T01:07:11;18.17;;;8.25;;
20653;SDS011;21083;50.898;4.902;2023-03-07T01:09:38;17.50;;;7.25;;
20653;SDS011;21083;50.898;4.902;2023-03-07T01:12:05;16.63;;;8.02;;
20653;SDS011;21083;50.898;4.902;2023-03-07T01:14:33;17.20;;;8.70;;
20653;SDS011;21083;50.898;4.902;2023-03-07T01:17:00;22.20;;;8.98;;
20653;SDS011;21083;50.898;4.902;2023-03-07T01:19:28;20.33;;;9.15;;
20653;SDS011;21083;50.898;4.902;2023-03-07T01:21:55;21.00;;;9.38;;
20653;SDS011;21083;50.898;4.902;2023-03-07T01:24:23;20.67;;;9.77;;
20653;SDS011;21083;50.898;4.902;2023-03-07T01:26:50;21.25;;;10.43;;
20653;SDS011;21083;50.898;4.902;2023-03-07T01:29:17;20.33;;;9.30;;
20653;SDS011;21083;50.898;4.902;2023-03-07T01:31:44;20.98;;;10.13;;
20653;SDS011;21083;50.898;4.902;2023-03-07T01:34:11;26.42;;;10.55;;
20653;SDS011;21083;50.898;4.902;2023-03-07T01:36:38;25.08;;;10.35;;
20653;SDS011;21083;50.898;4.902;2023-03-07T01:39:05;19.33;;;8.52;;
20653;SDS011;21083;50.898;4.902;2023-03-07T01:41:38;24.63;;;10.35;;
20653;SDS011;21083;50.898;4.902;2023-03-07T01:44:11;22.45;;;9.98;;
20653;SDS011;21083;50.898;4.902;2023-03-07T01:46:44;22.02;;;8.98;;
20653;SDS011;21083;50.898;4.902;2023-03-07T01:49:18;25.45;;;9.30;;
20653;SDS011;21083;50.898;4.902;2023-03-07T01:51:50;23.40;;;10.70;;
20653;SDS011;21083;50.898;4.902;2023-03-07T01:54:21;24.73;;;10.07;;
20653;SDS011;21083;50.898;4.902;2023-03-07T01:56:51;28.45;;;10.70;;
20653;SDS011;21083;50.898;4.902;2023-03-07T01:59:21;19.80;;;9.45;;
20653;SDS011;21083;50.898;4.902;2023-03-07T02:01:53;22.02;;;10.13;;
20653;SDS011;21083;50.898;4.902;2023-03-07T02:04:21;20.58;;;8.95;;
20653;SDS011;21083;50.898;4.902;2023-03-07T02:06:52;22.33;;;9.60;;
20653;SDS011;21083;50.898;4.902;2023-03-07T02:09:19;19.95;;;9.32;;
20653;SDS011;21083;50.898;4.902;2023-03-07T02:11:48;21.10;;;10.27;;
20653;SDS011;21083;50.898;4.902;2023-03-07T02:14:17;22.25;;;9.65;;
20653;SDS011;21083;50.898;4.902;2023-03-07T02:16:44;23.20;;;9.82;;
20653;SDS011;21083;50.898;4.902;2023-03-07T02:19:16;19.60;;;9.70;;
20653;SDS011;21083;50.898;4.902;2023-03-07T02:21:52;20.40;;;9.43;;
20653;SDS011;21083;50.898;4.902;2023-03-07T02:24:25;24.85;;;9.98;;
20653;SDS011;21083;50.898;4.902;2023-03-07T02:26:57;23.77;;;9.70;;
20653;SDS011;21083;50.898;4.902;2023-03-07T02:29:24;24.27;;;10.45;;
20653;SDS011;21083;50.898;4.902;2023-03-07T02:31:51;24.05;;;10.52;;
20653;SDS011;21083;50.898;4.902;2023-03-07T02:34:19;22.65;;;10.07;;
20653;SDS011;21083;50.898;4.902;2023-03-07T02:36:49;23.08;;;10.60;;
20653;SDS011;21083;50.898;4.902;2023-03-07T02:39:19;24.02;;;10.85;;
20653;SDS011;21083;50.898;4.902;2023-03-07T02:41:48;20.50;;;10.48;;
20653;SDS011;21083;50.898;4.902;2023-03-07T02:44:18;25.88;;;11.18;;
20653;SDS011;21083;50.898;4.902;2023-03-07T02:46:46;23.15;;;10.23;;
20653;SDS011;21083;50.898;4.902;2023-03-07T02:49:13;26.25;;;10.05;;
20653;SDS011;21083;50.898;4.902;2023-03-07T02:51:40;24.27;;;11.38;;
20653;SDS011;21083;50.898;4.902;2023-03-07T02:54:07;23.48;;;11.35;;
20653;SDS011;21083;50.898;4.902;2023-03-07T02:56:34;23.33;;;11.10;;
20653;SDS011;21083;50.898;4.902;2023-03-07T02:59:01;22.63;;;9.25;;
20653;SDS011;21083;50.898;4.902;2023-03-07T03:01:29;24.33;;;11.07;;
20653;SDS011;21083;50.898;4.902;2023-03-07T03:03:57;23.05;;;10.60;;
20653;SDS011;21083;50.898;4.902;2023-03-07T03:06:24;20.77;;;10.00;;
20653;SDS011;21083;50.898;4.902;2023-03-07T03:08:51;28.23;;;10.93;;
20653;SDS011;21083;50.898;4.902;2023-03-07T03:11:18;26.42;;;12.43;;
20653;SDS011;21083;50.898;4.902;2023-03-07T03:13:45;21.15;;;9.75;;
20653;SDS011;21083;50.898;4.902;2023-03-07T03:16:12;21.75;;;11.38;;
20653;SDS011;21083;50.898;4.902;2023-03-07T03:18:40;23.98;;;11.75;;
20653;SDS011;21083;50.898;4.902;2023-03-07T03:21:07;24.05;;;10.95;;
20653;SDS011;21083;50.898;4.902;2023-03-07T03:23:35;21.73;;;11.10;;
20653;SDS011;21083;50.898;4.902;2023-03-07T03:26:03;25.33;;;10.77;;
20653;SDS011;21083;50.898;4.902;2023-03-07T03:28:32;25.65;;;10.85;;
20653;SDS011;21083;50.898;4.902;2023-03-07T03:31:00;22.38;;;10.68;;
20653;SDS011;21083;50.898;4.902;2023-03-07T03:33:29;23.75;;;11.30;;
20653;SDS011;21083;50.898;4.902;2023-03-07T03:35:58;22.15;;;11.20;;
20653;SDS011;21083;50.898;4.902;2023-03-07T03:38:30;24.75;;;10.68;;
20653;SDS011;21083;50.898;4.902;2023-03-07T03:40:58;25.02;;;10.82;;
20653;SDS011;21083;50.898;4.902;2023-03-07T03:43:28;26.05;;;11.75;;
20653;SDS011;21083;50.898;4.902;2023-03-07T03:45:55;28.10;;;12.40;;
20653;SDS011;21083;50.898;4.902;2023-03-07T03:48:23;23.58;;;11.15;;
20653;SDS011;21083;50.898;4.902;2023-03-07T03:50:58;24.65;;;12.23;;
20653;SDS011;21083;50.898;4.902;2023-03-07T03:53:29;23.50;;;10.38;;
20653;SDS011;21083;50.898;4.902;2023-03-07T03:56:00;23.98;;;10.93;;
20653;SDS011;21083;50.898;4.902;2023-03-07T03:58:28;23.67;;;11.18;;
20653;SDS011;21083;50.898;4.902;2023-03-07T04:00:55;23.10;;;9.50;;
20653;SDS011;21083;50.898;4.902;2023-03-07T04:03:22;22.35;;;10.63;;
20653;SDS011;21083;50.898;4.902;2023-03-07T04:05:49;25.27;;;11.20;;
20653;SDS011;21083;50.898;4.902;2023-03-07T04:08:17;25.63;;;11.63;;
20653;SDS011;21083;50.898;4.902;2023-03-07T04:10:46;25.30;;;10.88;;
20653;SDS011;21083;50.898;4.902;2023-03-07T04:13:13;25.92;;;11.85;;
20653;SDS011;21083;50.898;4.902;2023-03-07T04:15:40;21.08;;;10.13;;
20653;SDS011;21083;50.898;4.902;2023-03-07T04:18:08;23.13;;;11.02;;
20653;SDS011;21083;50.898;4.902;2023-03-07T04:20:34;21.80;;;9.50;;
20653;SDS011;21083;50.898;4.902;2023-03-07T04:23:01;19.30;;;8.93;;
20653;SDS011;21083;50.898;4.902;2023-03-07T04:25:30;26.63;;;11.13;;
20653;SDS011;21083;50.898;4.902;2023-03-07T04:27:57;19.48;;;9.27;;
20653;SDS011;21083;50.898;4.902;2023-03-07T04:30:24;21.42;;;9.50;;
20653;SDS011;21083;50.898;4.902;2023-03-07T04:32:51;26.58;;;11.27;;
20653;SDS011;21083;50.898;4.902;2023-03-07T04:35:18;25.73;;;10.95;;
20653;SDS011;21083;50.898;4.902;2023-03-07T04:37:45;24.42;;;10.77;;
20653;SDS011;21083;50.898;4.902;2023-03-07T04:40:14;22.70;;;10.13;;
20653;SDS011;21083;50.898;4.902;2023-03-07T04:42:43;19.63;;;10.55;;
20653;SDS011;21083;50.898;4.902;2023-03-07T04:45:10;23.55;;;9.88;;
20653;SDS011;21083;50.898;4.902;2023-03-07T04:47:37;23.35;;;9.13;;
20653;SDS011;21083;50.898;4.902;2023-03-07T04:50:04;19.85;;;9.80;;
20653;SDS011;21083;50.898;4.902;2023-03-07T04:52:32;24.15;;;10.40;;
20653;SDS011;21083;50.898;4.902;2023-03-07T04:54:59;19.52;;;9.00;;
20653;SDS011;21083;50.898;4.902;2023-03-07T04:57:26;25.63;;;10.50;;
20653;SDS011;21083;50.898;4.902;2023-03-07T04:59:54;23.33;;;10.38;;
20653;SDS011;21083;50.898;4.902;2023-03-07T05:02:21;20.58;;;9.77;;
20653;SDS011;21083;50.898;4.902;2023-03-07T05:04:48;21.85;;;9.50;;
20653;SDS011;21083;50.898;4.902;2023-03-07T05:07:15;22.48;;;9.70;;
20653;SDS011;21083;50.898;4.902;2023-03-07T05:09:42;24.42;;;10.23;;
20653;SDS011;21083;50.898;4.902;2023-03-07T05:12:09;21.25;;;10.05;;
20653;SDS011;21083;50.898;4.902;2023-03-07T05:14:36;23.77;;;9.68;;
20653;SDS011;21083;50.898;4.902;2023-03-07T05:17:04;19.58;;;8.57;;
20653;SDS011;21083;50.898;4.902;2023-03-07T05:19:31;20.60;;;10.23;;
20653;SDS011;21083;50.898;4.902;2023-03-07T05:21:58;23.83;;;10.45;;
20653;SDS011;21083;50.898;4.902;2023-03-07T05:24:26;23.33;;;10.18;;
20653;SDS011;21083;50.898;4.902;2023-03-07T05:26:53;24.80;;;10.43;;
20653;SDS011;21083;50.898;4.902;2023-03-07T05:29:20;25.02;;;10.48;;
20653;SDS011;21083;50.898;4.902;2023-03-07T05:31:47;21.92;;;9.38;;
20653;SDS011;21083;50.898;4.902;2023-03-07T05:34:15;22.42;;;9.07;;
20653;SDS011;21083;50.898;4.902;2023-03-07T05:36:43;24.85;;;10.98;;
20653;SDS011;21083;50.898;4.902;2023-03-07T05:39:10;21.33;;;9.77;;
20653;SDS011;21083;50.898;4.902;2023-03-07T05:41:37;20.60;;;9.25;;
20653;SDS011;21083;50.898;4.902;2023-03-07T05:44:04;22.65;;;10.07;;
20653;SDS011;21083;50.898;4.902;2023-03-07T05:46:31;21.90;;;9.43;;
20653;SDS011;21083;50.898;4.902;2023-03-07T05:48:58;19.63;;;8.75;;
20653;SDS011;21083;50.898;4.902;2023-03-07T05:51:26;19.88;;;8.32;;
20653;SDS011;21083;50.898;4.902;2023-03-07T05:53:53;19.40;;;8.15;;
20653;SDS011;21083;50.898;4.902;2023-03-07T05:56:20;20.85;;;9.55;;
20653;SDS011;21083;50.898;4.902;2023-03-07T05:58:47;24.50;;;8.70;;
20653;SDS011;21083;50.898;4.902;2023-03-07T06:01:14;21.92;;;8.77;;
20653;SDS011;21083;50.898;4.902;2023-03-07T06:03:41;20.42;;;9.32;;
20653;SDS011;21083;50.898;4.902;2023-03-07T06:06:09;21.02;;;8.80;;
20653;SDS011;21083;50.898;4.902;2023-03-07T06:08:37;17.42;;;8.32;;
20653;SDS011;21083;50.898;4.902;2023-03-07T06:11:04;20.77;;;8.90;;
20653;SDS011;21083;50.898;4.902;2023-03-07T06:13:31;19.92;;;9.52;;
20653;SDS011;21083;50.898;4.902;2023-03-07T06:15:58;19.60;;;8.55;;
20653;SDS011;21083;50.898;4.902;2023-03-07T06:18:25;21.05;;;9.07;;
20653;SDS011;21083;50.898;4.902;2023-03-07T06:20:53;19.77;;;8.27;;
20653;SDS011;21083;50.898;4.902;2023-03-07T06:23:22;21.95;;;7.93;;
20653;SDS011;21083;50.898;4.902;2023-03-07T06:25:51;23.33;;;10.20;;
20653;SDS011;21083;50.898;4.902;2023-03-07T06:28:18;19.55;;;9.00;;
20653;SDS011;21083;50.898;4.902;2023-03-07T06:30:45;20.15;;;9.43;;
20653;SDS011;21083;50.898;4.902;2023-03-07T06:33:12;23.25;;;9.98;;
20653;SDS011;21083;50.898;4.902;2023-03-07T06:35:40;25.02;;;9.18;;
20653;SDS011;21083;50.898;4.902;2023-03-07T06:38:08;17.35;;;8.02;;
20653;SDS011;21083;50.898;4.902;2023-03-07T06:40:37;23.00;;;9.98;;
20653;SDS011;21083;50.898;4.902;2023-03-07T06:43:05;18.33;;;8.82;;
20653;SDS011;21083;50.898;4.902;2023-03-07T06:45:32;22.27;;;9.15;;
20653;SDS011;21083;50.898;4.902;2023-03-07T06:47:59;20.73;;;9.60;;
20653;SDS011;21083;50.898;4.902;2023-03-07T06:50:26;22.02;;;9.85;;
20653;SDS011;21083;50.898;4.902;2023-03-07T06:52:53;22.80;;;9.10;;
20653;SDS011;21083;50.898;4.902;2023-03-07T06:55:20;20.40;;;9.15;;
20653;SDS011;21083;50.898;4.902;2023-03-07T06:57:47;18.90;;;9.23;;
20653;SDS011;21083;50.898;4.902;2023-03-07T07:00:16;24.73;;;8.98;;
20653;SDS011;21083;50.898;4.902;2023-03-07T07:02:44;22.40;;;9.68;;
20653;SDS011;21083;50.898;4.902;2023-03-07T07:05:11;22.15;;;9.52;;
20653;SDS011;21083;50.898;4.902;2023-03-07T07:07:38;19.48;;;9.93;;
20653;SDS011;21083;50.898;4.902;2023-03-07T07:10:05;21.83;;;9.27;;
20653;SDS011;21083;50.898;4.902;2023-03-07T07:12:32;21.48;;;9.23;;
20653;SDS011;21083;50.898;4.902;2023-03-07T07:14:59;18.05;;;9.32;;
20653;SDS011;21083;50.898;4.902;2023-03-07T07:17:30;19.52;;;9.00;;
20653;SDS011;21083;50.898;4.902;2023-03-07T07:19:59;18.35;;;8.70;;
20653;SDS011;21083;50.898;4.902;2023-03-07T07:22:26;23.05;;;10.70;;
20653;SDS011;21083;50.898;4.902;2023-03-07T07:24:53;27.45;;;11.38;;
20653;SDS011;21083;50.898;4.902;2023-03-07T07:27:20;21.60;;;10.65;;
20653;SDS011;21083;50.898;4.902;2023-03-07T07:29:47;21.13;;;9.40;;
20653;SDS011;21083;50.898;4.902;2023-03-07T07:32:14;23.20;;;8.65;;
20653;SDS011;21083;50.898;4.902;2023-03-07T07:34:42;22.38;;;10.13;;
20653;SDS011;21083;50.898;4.902;2023-03-07T07:37:09;30.63;;;11.32;;
20653;SDS011;21083;50.898;4.902;2023-03-07T07:39:36;19.90;;;9.25;;
20653;SDS011;21083;50.898;4.902;2023-03-07T07:42:05;24.98;;;10.57;;
20653;SDS011;21083;50.898;4.902;2023-03-07T07:44:32;25.25;;;11.25;;
20653;SDS011;21083;50.898;4.902;2023-03-07T07:46:59;25.30;;;10.52;;
20653;SDS011;21083;50.898;4.902;2023-03-07T07:49:26;21.65;;;9.57;;
20653;SDS011;21083;50.898;4.902;2023-03-07T07:51:55;21.23;;;9.95;;
20653;SDS011;21083;50.898;4.902;2023-03-07T07:54:22;22.83;;;10.50;;
20653;SDS011;21083;50.898;4.902;2023-03-07T07:56:49;23.05;;;10.25;;
20653;SDS011;21083;50.898;4.902;2023-03-07T07:59:16;21.08;;;9.07;;
20653;SDS011;21083;50.898;4.902;2023-03-07T08:01:43;22.77;;;9.88;;
20653;SDS011;21083;50.898;4.902;2023-03-07T08:04:10;24.85;;;10.90;;
20653;SDS011;21083;50.898;4.902;2023-03-07T08:06:37;23.58;;;10.30;;
20653;SDS011;21083;50.898;4.902;2023-03-07T08:09:05;23.50;;;10.40;;
20653;SDS011;21083;50.898;4.902;2023-03-07T08:11:33;22.58;;;10.73;;
20653;SDS011;21083;50.898;4.902;2023-03-07T08:14:00;26.25;;;11.20;;
20653;SDS011;21083;50.898;4.902;2023-03-07T08:16:27;22.33;;;10.65;;
20653;SDS011;21083;50.898;4.902;2023-03-07T08:18:55;23.00;;;10.80;;
20653;SDS011;21083;50.898;4.902;2023-03-07T08:21:23;17.90;;;8.88;;
20653;SDS011;21083;50.898;4.902;2023-03-07T08:23:51;21.83;;;10.15;;
20653;SDS011;21083;50.898;4.902;2023-03-07T08:26:20;21.83;;;8.90;;
20653;SDS011;21083;50.898;4.902;2023-03-07T08:28:47;17.27;;;7.95;;
20653;SDS011;21083;50.898;4.902;2023-03-07T08:31:15;19.88;;;8.60;;
20653;SDS011;21083;50.898;4.902;2023-03-07T08:33:44;18.30;;;8.65;;
20653;SDS011;21083;50.898;4.902;2023-03-07T08:36:11;16.92;;;8.30;;
20653;SDS011;21083;50.898;4.902;2023-03-07T08:38:38;17.88;;;7.63;;
20653;SDS011;21083;50.898;4.902;2023-03-07T08:41:06;19.85;;;9.38;;
20653;SDS011;21083;50.898;4.902;2023-03-07T08:43:35;16.80;;;8.52;;
20653;SDS011;21083;50.898;4.902;2023-03-07T08:46:03;19.75;;;7.72;;
20653;SDS011;21083;50.898;4.902;2023-03-07T08:48:30;18.48;;;7.00;;
20653;SDS011;21083;50.898;4.902;2023-03-07T08:51:02;19.23;;;8.23;;
20653;SDS011;21083;50.898;4.902;2023-03-07T08:53:30;20.70;;;8.52;;
20653;SDS011;21083;50.898;4.902;2023-03-07T08:55:57;20.77;;;8.73;;
20653;SDS011;21083;50.898;4.902;2023-03-07T08:58:24;19.98;;;7.68;;
20653;SDS011;21083;50.898;4.902;2023-03-07T09:00:52;16.42;;;7.07;;
20653;SDS011;21083;50.898;4.902;2023-03-07T09:03:19;20.35;;;9.45;;
20653;SDS011;21083;50.898;4.902;2023-03-07T09:05:46;18.27;;;8.55;;
20653;SDS011;21083;50.898;4.902;2023-03-07T09:08:13;19.67;;;8.18;;
20653;SDS011;21083;50.898;4.902;2023-03-07T09:10:40;20.23;;;8.55;;
20653;SDS011;21083;50.898;4.902;2023-03-07T09:13:07;20.67;;;9.15;;
20653;SDS011;21083;50.898;4.902;2023-03-07T09:15:36;19.05;;;8.20;;
20653;SDS011;21083;50.898;4.902;2023-03-07T09:18:05;17.70;;;8.52;;
20653;SDS011;21083;50.898;4.902;2023-03-07T09:20:33;19.73;;;8.52;;
20653;SDS011;21083;50.898;4.902;2023-03-07T09:23:00;20.27;;;8.98;;
20653;SDS011;21083;50.898;4.902;2023-03-07T09:25:27;22.27;;;9.00;;
20653;SDS011;21083;50.898;4.902;2023-03-07T09:27:54;18.88;;;8.50;;
20653;SDS011;21083;50.898;4.902;2023-03-07T09:30:21;19.35;;;8.73;;
20653;SDS011;21083;50.898;4.902;2023-03-07T09:32:49;19.55;;;8.85;;
20653;SDS011;21083;50.898;4.902;2023-03-07T09:35:18;21.17;;;9.23;;
20653;SDS011;21083;50.898;4.902;2023-03-07T09:37:45;17.85;;;8.23;;
20653;SDS011;21083;50.898;4.902;2023-03-07T09:40:14;18.45;;;8.75;;
20653;SDS011;21083;50.898;4.902;2023-03-07T09:42:46;18.90;;;8.32;;
20653;SDS011;21083;50.898;4.902;2023-03-07T09:45:21;15.95;;;7.60;;
20653;SDS011;21083;50.898;4.902;2023-03-07T09:48:05;21.15;;;9.27;;
20653;SDS011;21083;50.898;4.902;2023-03-07T09:50:47;19.02;;;8.48;;
20653;SDS011;21083;50.898;4.902;2023-03-07T09:53:21;17.70;;;8.77;;
20653;SDS011;21083;50.898;4.902;2023-03-07T09:55:53;20.33;;;8.95;;
20653;SDS011;21083;50.898;4.902;2023-03-07T09:58:23;20.02;;;9.32;;
20653;SDS011;21083;50.898;4.902;2023-03-07T10:00:53;17.67;;;7.93;;
20653;SDS011;21083;50.898;4.902;2023-03-07T10:03:26;18.75;;;8.27;;
20653;SDS011;21083;50.898;4.902;2023-03-07T10:06:01;18.40;;;7.68;;
20653;SDS011;21083;50.898;4.902;2023-03-07T10:08:33;17.58;;;8.30;;
20653;SDS011;21083;50.898;4.902;2023-03-07T10:11:05;18.67;;;8.25;;
20653;SDS011;21083;50.898;4.902;2023-03-07T10:13:48;17.27;;;8.30;;
20653;SDS011;21083;50.898;4.902;2023-03-07T10:16:25;16.75;;;6.53;;
20653;SDS011;21083;50.898;4.902;2023-03-07T10:19:02;18.65;;;8.23;;
20653;SDS011;21083;50.898;4.902;2023-03-07T10:21:38;15.90;;;6.80;;
20653;SDS011;21083;50.898;4.902;2023-03-07T10:24:24;17.90;;;8.20;;
20653;SDS011;21083;50.898;4.902;2023-03-07T10:27:02;18.23;;;7.57;;
20653;SDS011;21083;50.898;4.902;2023-03-07T10:29:33;15.32;;;7.15;;
20653;SDS011;21083;50.898;4.902;2023-03-07T10:32:11;18.27;;;8.40;;
20653;SDS011;21083;50.898;4.902;2023-03-07T10:34:50;15.90;;;7.35;;
20653;SDS011;21083;50.898;4.902;2023-03-07T10:37:25;16.10;;;7.75;;
20653;SDS011;21083;50.898;4.902;2023-03-07T10:40:01;17.23;;;7.43;;
20653;SDS011;21083;50.898;4.902;2023-03-07T10:42:29;16.35;;;8.15;;
20653;SDS011;21083;50.898;4.902;2023-03-07T10:45:01;16.70;;;7.45;;
20653;SDS011;21083;50.898;4.902;2023-03-07T10:47:28;16.48;;;6.95;;
20653;SDS011;21083;50.898;4.902;2023-03-07T10:49:56;16.42;;;7.35;;
20653;SDS011;21083;50.898;4.902;2023-03-07T10:52:37;13.30;;;5.63;;
20653;SDS011;21083;50.898;4.902;2023-03-07T10:58:12;10.05;;;3.95;;
20653;SDS011;21083;50.898;4.902;2023-03-07T11:00:43;10.45;;;3.95;;
20653;SDS011;21083;50.898;4.902;2023-03-07T11:03:21;10.13;;;3.92;;
20653;SDS011;21083;50.898;4.902;2023-03-07T11:05:52;9.88;;;3.92;;
20653;SDS011;21083;50.898;4.902;2023-03-07T11:08:23;10.27;;;4.43;;
20653;SDS011;21083;50.898;4.902;2023-03-07T11:10:55;10.23;;;3.97;;
20653;SDS011;21083;50.898;4.902;2023-03-07T11:13:23;10.80;;;4.03;;
20653;SDS011;21083;50.898;4.902;2023-03-07T11:15:50;9.98;;;3.60;;
20653;SDS011;21083;50.898;4.902;2023-03-07T11:18:36;8.43;;;3.45;;
20653;SDS011;21083;50.898;4.902;2023-03-07T11:21:04;10.75;;;3.90;;
20653;SDS011;21083;50.898;4.902;2023-03-07T11:23:32;12.25;;;3.88;;
20653;SDS011;21083;50.898;4.902;2023-03-07T11:26:12;9.02;;;3.22;;
20653;SDS011;21083;50.898;4.902;2023-03-07T11:28:41;9.38;;;3.67;;
20653;SDS011;21083;50.898;4.902;2023-03-07T11:31:10;9.50;;;3.95;;
20653;SDS011;21083;50.898;4.902;2023-03-07T11:33:46;9.77;;;3.70;;
20653;SDS011;21083;50.898;4.902;2023-03-07T11:36:18;11.95;;;3.97;;
20653;SDS011;21083;50.898;4.902;2023-03-07T11:38:58;9.82;;;4.50;;
20653;SDS011;21083;50.898;4.902;2023-03-07T11:41:28;11.05;;;4.47;;
20653;SDS011;21083;50.898;4.902;2023-03-07T11:44:05;11.43;;;4.18;;
20653;SDS011;21083;50.898;4.902;2023-03-07T11:46:53;7.97;;;3.53;;
20653;SDS011;21083;50.898;4.902;2023-03-07T11:49:33;6.72;;;3.03;;
20653;SDS011;21083;50.898;4.902;2023-03-07T11:52:17;9.43;;;3.15;;
20653;SDS011;21083;50.898;4.902;2023-03-07T11:54:57;7.60;;;2.90;;
20653;SDS011;21083;50.898;4.902;2023-03-07T11:57:34;6.22;;;2.63;;
20653;SDS011;21083;50.898;4.902;2023-03-07T12:00:22;6.82;;;2.95;;
20653;SDS011;21083;50.898;4.902;2023-03-07T12:03:06;6.05;;;2.55;;
20653;SDS011;21083;50.898;4.902;2023-03-07T12:06:02;5.55;;;2.28;;
20653;SDS011;21083;50.898;4.902;2023-03-07T12:08:39;6.78;;;2.70;;
20653;SDS011;21083;50.898;4.902;2023-03-07T12:11:27;6.03;;;2.60;;
20653;SDS011;21083;50.898;4.902;2023-03-07T12:14:09;5.85;;;2.63;;
20653;SDS011;21083;50.898;4.902;2023-03-07T12:16:45;7.47;;;3.00;;
20653;SDS011;21083;50.898;4.902;2023-03-07T12:22:20;4.30;;;1.95;;
20653;SDS011;21083;50.898;4.902;2023-03-07T12:24:58;6.57;;;2.25;;
20653;SDS011;21083;50.898;4.902;2023-03-07T12:27:44;5.88;;;2.03;;
20653;SDS011;21083;50.898;4.902;2023-03-07T12:30:17;5.25;;;2.53;;
20653;SDS011;21083;50.898;4.902;2023-03-07T12:32:47;6.88;;;2.63;;
20653;SDS011;21083;50.898;4.902;2023-03-07T12:35:17;5.15;;;2.33;;
20653;SDS011;21083;50.898;4.902;2023-03-07T12:37:51;4.45;;;2.00;;
20653;SDS011;21083;50.898;4.902;2023-03-07T12:40:23;5.35;;;2.10;;
20653;SDS011;21083;50.898;4.902;2023-03-07T12:42:56;6.15;;;2.13;;
20653;SDS011;21083;50.898;4.902;2023-03-07T12:45:27;6.60;;;2.47;;
20653;SDS011;21083;50.898;4.902;2023-03-07T12:48:02;8.43;;;2.85;;
20653;SDS011;21083;50.898;4.902;2023-03-07T12:50:36;6.40;;;2.65;;
20653;SDS011;21083;50.898;4.902;2023-03-07T12:53:12;5.65;;;2.38;;
20653;SDS011;21083;50.898;4.902;2023-03-07T12:55:47;7.00;;;2.88;;
20653;SDS011;21083;50.898;4.902;2023-03-07T12:58:33;7.82;;;3.35;;
20653;SDS011;21083;50.898;4.902;2023-03-07T13:01:08;9.73;;;3.25;;
20653;SDS011;21083;50.898;4.902;2023-03-07T13:03:40;11.82;;;3.40;;
20653;SDS011;21083;50.898;4.902;2023-03-07T13:06:16;8.70;;;3.38;;
20653;SDS011;21083;50.898;4.902;2023-03-07T13:08:46;9.32;;;3.47;;
20653;SDS011;21083;50.898;4.902;2023-03-07T13:11:18;8.05;;;3.53;;
20653;SDS011;21083;50.898;4.902;2023-03-07T13:13:52;8.63;;;3.35;;
20653;SDS011;21083;50.898;4.902;2023-03-07T13:16:31;8.00;;;3.20;;
20653;SDS011;21083;50.898;4.902;2023-03-07T13:52:20;16.67;;;8.95;;
20653;SDS011;21083;50.898;4.902;2023-03-07T13:54:59;17.05;;;8.55;;
20653;SDS011;21083;50.898;4.902;2023-03-07T13:57:37;19.08;;;9.65;;
20653;SDS011;21083;50.898;4.902;2023-03-07T14:00:20;18.20;;;8.60;;
20653;SDS011;21083;50.898;4.902;2023-03-07T14:02:50;16.40;;;8.32;;
20653;SDS011;21083;50.898;4.902;2023-03-07T14:05:18;15.95;;;8.15;;
20653;SDS011;21083;50.898;4.902;2023-03-07T14:07:46;29.05;;;14.57;;
20653;SDS011;21083;50.898;4.902;2023-03-07T14:10:17;17.45;;;8.40;;
20653;SDS011;21083;50.898;4.902;2023-03-07T14:12:57;15.68;;;7.90;;
20653;SDS011;21083;50.898;4.902;2023-03-07T14:15:42;17.33;;;8.15;;
20653;SDS011;21083;50.898;4.902;2023-03-07T14:18:22;20.08;;;9.13;;
20653;SDS011;21083;50.898;4.902;2023-03-07T14:20:57;14.38;;;6.95;;
20653;SDS011;21083;50.898;4.902;2023-03-07T14:23:47;16.92;;;7.88;;
20653;SDS011;21083;50.898;4.902;2023-03-07T14:26:24;14.75;;;6.80;;
20653;SDS011;21083;50.898;4.902;2023-03-07T14:28:58;16.08;;;7.90;;
20653;SDS011;21083;50.898;4.902;2023-03-07T14:31:27;14.65;;;7.55;;
20653;SDS011;21083;50.898;4.902;2023-03-07T14:33:56;15.25;;;7.53;;
20653;SDS011;21083;50.898;4.902;2023-03-07T14:36:24;14.70;;;6.82;;
20653;SDS011;21083;50.898;4.902;2023-03-07T14:38:53;15.68;;;7.32;;
20653;SDS011;21083;50.898;4.902;2023-03-07T14:41:29;14.02;;;7.20;;
20653;SDS011;21083;50.898;4.902;2023-03-07T14:44:08;14.80;;;7.13;;
20653;SDS011;21083;50.898;4.902;2023-03-07T14:47:03;15.68;;;7.05;;
20653;SDS011;21083;50.898;4.902;2023-03-07T14:49:41;14.70;;;6.68;;
20653;SDS011;21083;50.898;4.902;2023-03-07T14:52:14;13.20;;;6.43;;
20653;SDS011;21083;50.898;4.902;2023-03-07T14:54:43;13.05;;;6.05;;
20653;SDS011;21083;50.898;4.902;2023-03-07T14:57:12;9.40;;;4.18;;
20653;SDS011;21083;50.898;4.902;2023-03-07T15:02:33;9.10;;;3.90;;
20653;SDS011;21083;50.898;4.902;2023-03-07T15:05:00;9.02;;;4.20;;
20653;SDS011;21083;50.898;4.902;2023-03-07T15:07:28;9.82;;;4.20;;
20653;SDS011;21083;50.898;4.902;2023-03-07T15:09:55;11.18;;;5.10;;
20653;SDS011;21083;50.898;4.902;2023-03-07T15:12:23;10.50;;;4.60;;
20653;SDS011;21083;50.898;4.902;2023-03-07T15:14:53;11.40;;;5.22;;
20653;SDS011;21083;50.898;4.902;2023-03-07T15:17:25;12.55;;;4.53;;
20653;SDS011;21083;50.898;4.902;2023-03-07T15:19:56;9.75;;;4.28;;
20653;SDS011;21083;50.898;4.902;2023-03-07T15:22:29;8.82;;;3.72;;
20653;SDS011;21083;50.898;4.902;2023-03-07T15:25:03;8.60;;;3.58;;
20653;SDS011;21083;50.898;4.902;2023-03-07T15:27:31;8.00;;;3.50;;
20653;SDS011;21083;50.898;4.902;2023-03-07T15:29:59;8.98;;;3.90;;
20653;SDS011;21083;50.898;4.902;2023-03-07T15:32:29;10.13;;;3.92;;